sensor_id;sensor_type;location;lat;lon;timestamp;P1;durP1;ratioP1;P2;durP2;ratioP2
76631;SDS011;65526;48.578;-4.520;2023-09-12T00:00:37;23.75;;;9.45;;
76631;SDS011;65526;48.578;-4.520;2023-09-12T00:03:03;20.88;;;9.10;;
76631;SDS011;65526;48.578;-4.520;2023-09-12T00:05:30;23.48;;;9.15;;
76631;SDS011;65526;48.578;-4.520;2023-09-12T00:07:56;27.88;;;9.68;;
76631;SDS011;65526;48.578;-4.520;2023-09-12T00:10:22;21.35;;;8.80;;
76631;SDS011;65526;48.578;-4.520;2023-09-12T00:12:49;23.52;;;9.23;;
76631;SDS011;65526;48.578;-4.520;2023-09-12T00:15:15;29.52;;;9.57;;
76631;SDS011;65526;48.578;-4.520;2023-09-12T00:17:42;32.88;;;10.70;;
76631;SDS011;65526;48.578;-4.520;2023-09-12T00:20:08;29.67;;;10.55;;
76631;SDS011;65526;48.578;-4.520;2023-09-12T00:22:35;26.23;;;9.57;;
76631;SDS011;65526;48.578;-4.520;2023-09-12T00:25:01;28.73;;;10.20;;
76631;SDS011;65526;48.578;-4.520;2023-09-12T00:27:29;29.55;;;10.63;;
76631;SDS011;65526;48.578;-4.520;2023-09-12T00:29:55;26.67;;;10.05;;
76631;SDS011;65526;48.578;-4.520;2023-09-12T00:32:21;30.02;;;10.38;;
76631;SDS011;65526;48.578;-4.520;2023-09-12T00:34:48;25.02;;;10.90;;
76631;SDS011;65526;48.578;-4.520;2023-09-12T00:37:14;25.98;;;10.52;;
76631;SDS011;65526;48.578;-4.520;2023-09-12T00:39:40;27.10;;;10.80;;
76631;SDS011;65526;48.578;-4.520;2023-09-12T00:42:07;25.35;;;10.68;;
76631;SDS011;65526;48.578;-4.520;2023-09-12T00:44:33;25.15;;;10.98;;
76631;SDS011;65526;48.578;-4.520;2023-09-12T00:47:00;24.95;;;11.75;;
76631;SDS011;65526;48.578;-4.520;2023-09-12T00:49:28;27.48;;;12.02;;
76631;SDS011;65526;48.578;-4.520;2023-09-12T00:51:56;30.13;;;12.23;;
76631;SDS011;65526;48.578;-4.520;2023-09-12T00:54:24;31.25;;;13.07;;
76631;SDS011;65526;48.578;-4.520;2023-09-12T00:56:51;28.63;;;13.45;;
76631;SDS011;65526;48.578;-4.520;2023-09-12T00:59:18;27.92;;;13.18;;
76631;SDS011;65526;48.578;-4.520;2023-09-12T01:01:45;28.05;;;12.85;;
76631;SDS011;65526;48.578;-4.520;2023-09-12T01:04:11;29.10;;;13.10;;
76631;SDS011;65526;48.578;-4.520;2023-09-12T01:06:38;26.58;;;12.32;;
76631;SDS011;65526;48.578;-4.520;2023-09-12T01:09:05;32.00;;;12.50;;
76631;SDS011;65526;48.578;-4.520;2023-09-12T01:11:32;29.85;;;13.55;;
76631;SDS011;65526;48.578;-4.520;2023-09-12T01:13:58;27.00;;;13.02;;
76631;SDS011;65526;48.578;-4.520;2023-09-12T01:16:25;37.63;;;14.23;;
76631;SDS011;65526;48.578;-4.520;2023-09-12T01:18:51;30.90;;;13.50;;
76631;SDS011;65526;48.578;-4.520;2023-09-12T01:27:08;32.22;;;13.82;;
76631;SDS011;65526;48.578;-4.520;2023-09-12T01:29:45;27.77;;;12.82;;
76631;SDS011;65526;48.578;-4.520;2023-09-12T01:32:14;26.58;;;12.73;;
76631;SDS011;65526;48.578;-4.520;2023-09-12T01:34:44;33.08;;;13.93;;
76631;SDS011;65526;48.578;-4.520;2023-09-12T01:37:10;26.92;;;13.15;;
76631;SDS011;65526;48.578;-4.520;2023-09-12T01:39:36;25.77;;;12.13;;
76631;SDS011;65526;48.578;-4.520;2023-09-12T01:42:03;27.40;;;13.38;;
76631;SDS011;65526;48.578;-4.520;2023-09-12T01:44:31;31.42;;;14.32;;
76631;SDS011;65526;48.578;-4.520;2023-09-12T01:47:01;29.63;;;13.85;;
76631;SDS011;65526;48.578;-4.520;2023-09-12T01:49:30;30.45;;;14.40;;
76631;SDS011;65526;48.578;-4.520;2023-09-12T01:51:58;29.10;;;14.90;;
76631;SDS011;65526;48.578;-4.520;2023-09-12T01:54:26;28.13;;;13.40;;
76631;SDS011;65526;48.578;-4.520;2023-09-12T01:56:56;34.45;;;14.90;;
76631;SDS011;65526;48.578;-4.520;2023-09-12T01:59:25;30.63;;;14.27;;
76631;SDS011;65526;48.578;-4.520;2023-09-12T02:01:51;28.35;;;13.77;;
76631;SDS011;65526;48.578;-4.520;2023-09-12T02:04:17;34.08;;;15.80;;
76631;SDS011;65526;48.578;-4.520;2023-09-12T02:06:44;32.38;;;15.27;;
76631;SDS011;65526;48.578;-4.520;2023-09-12T02:09:11;30.70;;;15.43;;
76631;SDS011;65526;48.578;-4.520;2023-09-12T02:11:37;29.05;;;14.35;;
76631;SDS011;65526;48.578;-4.520;2023-09-12T02:14:03;24.13;;;13.60;;
76631;SDS011;65526;48.578;-4.520;2023-09-12T02:16:30;28.15;;;15.10;;
76631;SDS011;65526;48.578;-4.520;2023-09-12T02:18:57;28.60;;;14.00;;
76631;SDS011;65526;48.578;-4.520;2023-09-12T02:21:24;26.17;;;14.10;;
76631;SDS011;65526;48.578;-4.520;2023-09-12T02:23:50;28.45;;;13.60;;
76631;SDS011;65526;48.578;-4.520;2023-09-12T02:26:18;27.67;;;14.50;;
76631;SDS011;65526;48.578;-4.520;2023-09-12T02:28:45;26.95;;;13.20;;
76631;SDS011;65526;48.578;-4.520;2023-09-12T02:31:12;29.50;;;13.23;;
76631;SDS011;65526;48.578;-4.520;2023-09-12T02:33:39;21.17;;;13.18;;
76631;SDS011;65526;48.578;-4.520;2023-09-12T02:36:06;28.60;;;13.98;;
76631;SDS011;65526;48.578;-4.520;2023-09-12T02:38:32;31.52;;;12.88;;
76631;SDS011;65526;48.578;-4.520;2023-09-12T02:40:59;24.95;;;11.80;;
76631;SDS011;65526;48.578;-4.520;2023-09-12T02:43:25;25.10;;;12.65;;
76631;SDS011;65526;48.578;-4.520;2023-09-12T02:45:52;25.75;;;13.07;;
76631;SDS011;65526;48.578;-4.520;2023-09-12T02:48:18;27.58;;;12.98;;
76631;SDS011;65526;48.578;-4.520;2023-09-12T02:50:44;24.40;;;13.30;;
76631;SDS011;65526;48.578;-4.520;2023-09-12T02:53:11;26.55;;;12.18;;
76631;SDS011;65526;48.578;-4.520;2023-09-12T02:55:41;25.23;;;12.30;;
76631;SDS011;65526;48.578;-4.520;2023-09-12T02:58:09;25.10;;;12.27;;
76631;SDS011;65526;48.578;-4.520;2023-09-12T03:00:39;25.45;;;11.93;;
76631;SDS011;65526;48.578;-4.520;2023-09-12T03:03:07;22.08;;;12.32;;
76631;SDS011;65526;48.578;-4.520;2023-09-12T03:05:35;28.88;;;13.02;;
76631;SDS011;65526;48.578;-4.520;2023-09-12T03:08:02;24.33;;;11.30;;
76631;SDS011;65526;48.578;-4.520;2023-09-12T03:10:29;22.27;;;12.32;;
76631;SDS011;65526;48.578;-4.520;2023-09-12T03:12:56;19.58;;;12.25;;
76631;SDS011;65526;48.578;-4.520;2023-09-12T03:15:22;23.23;;;12.32;;
76631;SDS011;65526;48.578;-4.520;2023-09-12T03:17:49;30.40;;;14.27;;
76631;SDS011;65526;48.578;-4.520;2023-09-12T03:20:15;25.27;;;14.23;;
76631;SDS011;65526;48.578;-4.520;2023-09-12T03:22:42;26.15;;;14.13;;
76631;SDS011;65526;48.578;-4.520;2023-09-12T03:25:08;23.90;;;13.23;;
76631;SDS011;65526;48.578;-4.520;2023-09-12T03:27:35;29.65;;;13.43;;
76631;SDS011;65526;48.578;-4.520;2023-09-12T03:30:01;21.65;;;12.95;;
76631;SDS011;65526;48.578;-4.520;2023-09-12T03:32:29;23.52;;;13.07;;
76631;SDS011;65526;48.578;-4.520;2023-09-12T03:34:56;26.98;;;13.43;;
76631;SDS011;65526;48.578;-4.520;2023-09-12T03:37:22;23.42;;;12.25;;
76631;SDS011;65526;48.578;-4.520;2023-09-12T03:39:53;23.17;;;12.43;;
76631;SDS011;65526;48.578;-4.520;2023-09-12T03:42:20;22.25;;;13.02;;
76631;SDS011;65526;48.578;-4.520;2023-09-12T03:44:46;22.38;;;13.20;;
76631;SDS011;65526;48.578;-4.520;2023-09-12T03:47:12;25.85;;;12.85;;
76631;SDS011;65526;48.578;-4.520;2023-09-12T03:49:39;26.00;;;12.43;;
76631;SDS011;65526;48.578;-4.520;2023-09-12T03:52:05;25.92;;;12.00;;
76631;SDS011;65526;48.578;-4.520;2023-09-12T03:54:32;22.67;;;12.82;;
76631;SDS011;65526;48.578;-4.520;2023-09-12T03:56:58;24.02;;;13.00;;
76631;SDS011;65526;48.578;-4.520;2023-09-12T03:59:25;24.52;;;12.82;;
76631;SDS011;65526;48.578;-4.520;2023-09-12T04:01:51;22.80;;;12.18;;
76631;SDS011;65526;48.578;-4.520;2023-09-12T04:04:17;23.23;;;13.15;;
76631;SDS011;65526;48.578;-4.520;2023-09-12T04:06:44;24.00;;;12.57;;
76631;SDS011;65526;48.578;-4.520;2023-09-12T04:09:10;25.02;;;13.02;;
76631;SDS011;65526;48.578;-4.520;2023-09-12T04:11:36;24.77;;;12.77;;
76631;SDS011;65526;48.578;-4.520;2023-09-12T04:14:03;23.67;;;11.80;;
76631;SDS011;65526;48.578;-4.520;2023-09-12T04:16:29;22.27;;;11.35;;
76631;SDS011;65526;48.578;-4.520;2023-09-12T04:18:56;25.75;;;12.50;;
76631;SDS011;65526;48.578;-4.520;2023-09-12T04:21:22;26.15;;;11.75;;
76631;SDS011;65526;48.578;-4.520;2023-09-12T04:23:48;25.58;;;11.70;;
76631;SDS011;65526;48.578;-4.520;2023-09-12T04:26:16;24.13;;;11.35;;
76631;SDS011;65526;48.578;-4.520;2023-09-12T04:28:42;23.00;;;11.48;;
76631;SDS011;65526;48.578;-4.520;2023-09-12T04:31:09;24.20;;;11.30;;
76631;SDS011;65526;48.578;-4.520;2023-09-12T04:33:35;27.23;;;12.82;;
76631;SDS011;65526;48.578;-4.520;2023-09-12T04:36:03;27.92;;;11.30;;
76631;SDS011;65526;48.578;-4.520;2023-09-12T04:38:29;28.10;;;13.23;;
76631;SDS011;65526;48.578;-4.520;2023-09-12T04:40:56;26.45;;;12.15;;
76631;SDS011;65526;48.578;-4.520;2023-09-12T04:43:23;24.25;;;11.95;;
76631;SDS011;65526;48.578;-4.520;2023-09-12T04:45:50;25.55;;;13.07;;
76631;SDS011;65526;48.578;-4.520;2023-09-12T04:48:16;27.65;;;12.73;;
76631;SDS011;65526;48.578;-4.520;2023-09-12T04:50:43;26.40;;;13.40;;
76631;SDS011;65526;48.578;-4.520;2023-09-12T04:53:10;32.30;;;14.10;;
76631;SDS011;65526;48.578;-4.520;2023-09-12T04:55:36;28.35;;;13.60;;
76631;SDS011;65526;48.578;-4.520;2023-09-12T04:58:04;31.00;;;13.45;;
76631;SDS011;65526;48.578;-4.520;2023-09-12T05:00:32;24.13;;;12.15;;
76631;SDS011;65526;48.578;-4.520;2023-09-12T05:02:59;22.95;;;12.07;;
76631;SDS011;65526;48.578;-4.520;2023-09-12T05:05:27;23.40;;;12.07;;
76631;SDS011;65526;48.578;-4.520;2023-09-12T05:07:53;25.42;;;12.88;;
76631;SDS011;65526;48.578;-4.520;2023-09-12T05:10:20;24.50;;;12.55;;
76631;SDS011;65526;48.578;-4.520;2023-09-12T05:12:47;25.58;;;13.32;;
76631;SDS011;65526;48.578;-4.520;2023-09-12T05:15:14;28.00;;;14.07;;
76631;SDS011;65526;48.578;-4.520;2023-09-12T05:17:40;30.67;;;14.43;;
76631;SDS011;65526;48.578;-4.520;2023-09-12T05:20:07;28.08;;;13.82;;
76631;SDS011;65526;48.578;-4.520;2023-09-12T05:22:34;32.58;;;14.25;;
76631;SDS011;65526;48.578;-4.520;2023-09-12T05:25:00;29.35;;;14.15;;
76631;SDS011;65526;48.578;-4.520;2023-09-12T05:27:26;29.80;;;13.00;;
76631;SDS011;65526;48.578;-4.520;2023-09-12T05:29:53;27.23;;;13.60;;
76631;SDS011;65526;48.578;-4.520;2023-09-12T05:32:19;29.05;;;13.63;;
76631;SDS011;65526;48.578;-4.520;2023-09-12T05:34:46;27.75;;;13.38;;
76631;SDS011;65526;48.578;-4.520;2023-09-12T05:37:15;25.98;;;13.00;;
76631;SDS011;65526;48.578;-4.520;2023-09-12T05:39:42;25.80;;;12.75;;
76631;SDS011;65526;48.578;-4.520;2023-09-12T05:42:08;24.92;;;12.88;;
76631;SDS011;65526;48.578;-4.520;2023-09-12T05:44:35;24.88;;;13.10;;
76631;SDS011;65526;48.578;-4.520;2023-09-12T05:47:02;23.98;;;12.40;;
76631;SDS011;65526;48.578;-4.520;2023-09-12T05:49:28;21.73;;;12.57;;
76631;SDS011;65526;48.578;-4.520;2023-09-12T05:51:55;22.35;;;12.82;;
76631;SDS011;65526;48.578;-4.520;2023-09-12T05:54:21;27.38;;;12.55;;
76631;SDS011;65526;48.578;-4.520;2023-09-12T05:56:48;24.83;;;12.23;;
76631;SDS011;65526;48.578;-4.520;2023-09-12T05:59:14;23.40;;;11.48;;
76631;SDS011;65526;48.578;-4.520;2023-09-12T06:01:41;27.45;;;12.63;;
76631;SDS011;65526;48.578;-4.520;2023-09-12T06:04:07;21.60;;;11.35;;
76631;SDS011;65526;48.578;-4.520;2023-09-12T06:06:34;22.08;;;11.50;;
76631;SDS011;65526;48.578;-4.520;2023-09-12T06:09:00;23.88;;;12.43;;
76631;SDS011;65526;48.578;-4.520;2023-09-12T06:11:26;23.10;;;11.82;;
76631;SDS011;65526;48.578;-4.520;2023-09-12T06:13:53;21.35;;;11.00;;
76631;SDS011;65526;48.578;-4.520;2023-09-12T06:16:19;20.42;;;11.35;;
76631;SDS011;65526;48.578;-4.520;2023-09-12T06:18:46;18.65;;;10.75;;
76631;SDS011;65526;48.578;-4.520;2023-09-12T06:21:14;20.17;;;10.63;;
76631;SDS011;65526;48.578;-4.520;2023-09-12T06:23:40;19.90;;;9.30;;
76631;SDS011;65526;48.578;-4.520;2023-09-12T06:26:07;18.17;;;9.77;;
76631;SDS011;65526;48.578;-4.520;2023-09-12T06:28:33;16.75;;;9.13;;
76631;SDS011;65526;48.578;-4.520;2023-09-12T06:30:59;18.42;;;8.98;;
76631;SDS011;65526;48.578;-4.520;2023-09-12T06:33:26;17.08;;;7.88;;
76631;SDS011;65526;48.578;-4.520;2023-09-12T06:35:52;12.00;;;6.90;;
76631;SDS011;65526;48.578;-4.520;2023-09-12T06:38:19;13.57;;;6.80;;
76631;SDS011;65526;48.578;-4.520;2023-09-12T06:40:46;9.82;;;6.03;;
76631;SDS011;65526;48.578;-4.520;2023-09-12T06:43:13;12.52;;;5.70;;
76631;SDS011;65526;48.578;-4.520;2023-09-12T06:45:40;9.82;;;5.13;;
76631;SDS011;65526;48.578;-4.520;2023-09-12T06:48:07;8.85;;;5.53;;
76631;SDS011;65526;48.578;-4.520;2023-09-12T06:50:33;9.80;;;4.65;;
76631;SDS011;65526;48.578;-4.520;2023-09-12T06:53:00;7.38;;;4.35;;
76631;SDS011;65526;48.578;-4.520;2023-09-12T06:55:27;9.90;;;4.82;;
76631;SDS011;65526;48.578;-4.520;2023-09-12T06:57:54;8.50;;;4.57;;
76631;SDS011;65526;48.578;-4.520;2023-09-12T07:00:20;8.00;;;4.25;;
76631;SDS011;65526;48.578;-4.520;2023-09-12T07:02:47;6.80;;;4.70;;
76631;SDS011;65526;48.578;-4.520;2023-09-12T07:05:13;10.38;;;4.32;;
76631;SDS011;65526;48.578;-4.520;2023-09-12T07:07:39;7.30;;;4.15;;
76631;SDS011;65526;48.578;-4.520;2023-09-12T07:10:06;10.25;;;4.00;;
76631;SDS011;65526;48.578;-4.520;2023-09-12T07:12:32;7.80;;;3.42;;
76631;SDS011;65526;48.578;-4.520;2023-09-12T07:15:00;6.75;;;3.00;;
76631;SDS011;65526;48.578;-4.520;2023-09-12T07:17:27;7.93;;;3.30;;
76631;SDS011;65526;48.578;-4.520;2023-09-12T07:19:54;6.35;;;3.15;;
76631;SDS011;65526;48.578;-4.520;2023-09-12T07:22:20;6.38;;;3.08;;
76631;SDS011;65526;48.578;-4.520;2023-09-12T07:24:47;6.95;;;2.60;;
76631;SDS011;65526;48.578;-4.520;2023-09-12T07:27:13;5.82;;;2.30;;
76631;SDS011;65526;48.578;-4.520;2023-09-12T07:29:39;4.90;;;2.22;;
76631;SDS011;65526;48.578;-4.520;2023-09-12T07:32:06;7.15;;;2.65;;
76631;SDS011;65526;48.578;-4.520;2023-09-12T07:34:32;3.85;;;2.20;;
76631;SDS011;65526;48.578;-4.520;2023-09-12T07:36:59;6.95;;;2.20;;
76631;SDS011;65526;48.578;-4.520;2023-09-12T07:39:25;8.23;;;2.90;;
76631;SDS011;65526;48.578;-4.520;2023-09-12T07:41:51;7.78;;;2.30;;
76631;SDS011;65526;48.578;-4.520;2023-09-12T07:44:18;6.78;;;2.33;;
76631;SDS011;65526;48.578;-4.520;2023-09-12T07:46:44;7.40;;;2.17;;
76631;SDS011;65526;48.578;-4.520;2023-09-12T07:49:11;6.72;;;2.08;;
76631;SDS011;65526;48.578;-4.520;2023-09-12T07:51:37;7.72;;;2.00;;
76631;SDS011;65526;48.578;-4.520;2023-09-12T07:54:04;5.55;;;2.20;;
76631;SDS011;65526;48.578;-4.520;2023-09-12T07:56:30;4.22;;;1.98;;
76631;SDS011;65526;48.578;-4.520;2023-09-12T07:58:57;6.05;;;1.80;;
76631;SDS011;65526;48.578;-4.520;2023-09-12T08:01:23;4.97;;;2.03;;
76631;SDS011;65526;48.578;-4.520;2023-09-12T08:03:50;3.65;;;1.65;;
76631;SDS011;65526;48.578;-4.520;2023-09-12T08:06:16;6.68;;;1.70;;
76631;SDS011;65526;48.578;-4.520;2023-09-12T08:08:43;4.80;;;1.63;;
76631;SDS011;65526;48.578;-4.520;2023-09-12T08:11:09;9.27;;;1.95;;
76631;SDS011;65526;48.578;-4.520;2023-09-12T08:13:36;4.90;;;1.40;;
76631;SDS011;65526;48.578;-4.520;2023-09-12T08:16:02;1.70;;;1.33;;
76631;SDS011;65526;48.578;-4.520;2023-09-12T08:18:29;5.70;;;1.33;;
76631;SDS011;65526;48.578;-4.520;2023-09-12T08:20:57;9.25;;;1.88;;
76631;SDS011;65526;48.578;-4.520;2023-09-12T08:23:23;7.28;;;1.50;;
76631;SDS011;65526;48.578;-4.520;2023-09-12T08:25:50;5.55;;;1.42;;
76631;SDS011;65526;48.578;-4.520;2023-09-12T08:28:16;9.52;;;1.67;;
76631;SDS011;65526;48.578;-4.520;2023-09-12T08:30:43;7.10;;;2.13;;
76631;SDS011;65526;48.578;-4.520;2023-09-12T08:33:11;7.78;;;1.48;;
76631;SDS011;65526;48.578;-4.520;2023-09-12T08:35:38;5.97;;;1.30;;
76631;SDS011;65526;48.578;-4.520;2023-09-12T08:38:04;6.65;;;1.35;;
76631;SDS011;65526;48.578;-4.520;2023-09-12T08:40:32;5.20;;;1.13;;
76631;SDS011;65526;48.578;-4.520;2023-09-12T08:43:01;6.40;;;1.50;;
76631;SDS011;65526;48.578;-4.520;2023-09-12T08:45:29;4.82;;;1.20;;
76631;SDS011;65526;48.578;-4.520;2023-09-12T08:47:57;8.98;;;1.25;;
76631;SDS011;65526;48.578;-4.520;2023-09-12T08:50:26;7.10;;;1.00;;
76631;SDS011;65526;48.578;-4.520;2023-09-12T08:52:56;4.70;;;1.20;;
76631;SDS011;65526;48.578;-4.520;2023-09-12T08:55:23;7.35;;;1.30;;
76631;SDS011;65526;48.578;-4.520;2023-09-12T08:57:50;4.18;;;0.90;;
76631;SDS011;65526;48.578;-4.520;2023-09-12T09:00:17;6.88;;;1.10;;
76631;SDS011;65526;48.578;-4.520;2023-09-12T09:02:45;4.78;;;1.33;;
76631;SDS011;65526;48.578;-4.520;2023-09-12T09:05:12;7.07;;;1.58;;
76631;SDS011;65526;48.578;-4.520;2023-09-12T09:07:41;4.82;;;0.82;;
76631;SDS011;65526;48.578;-4.520;2023-09-12T09:10:13;6.18;;;0.90;;
76631;SDS011;65526;48.578;-4.520;2023-09-12T09:12:42;4.57;;;1.02;;
76631;SDS011;65526;48.578;-4.520;2023-09-12T09:17:56;4.00;;;0.90;;
76631;SDS011;65526;48.578;-4.520;2023-09-12T09:23:03;3.70;;;0.77;;
76631;SDS011;65526;48.578;-4.520;2023-09-12T09:25:32;3.45;;;0.70;;
76631;SDS011;65526;48.578;-4.520;2023-09-12T09:28:02;4.10;;;0.80;;
76631;SDS011;65526;48.578;-4.520;2023-09-12T09:30:43;6.63;;;1.00;;
76631;SDS011;65526;48.578;-4.520;2023-09-12T09:33:13;4.50;;;0.90;;
76631;SDS011;65526;48.578;-4.520;2023-09-12T09:35:43;4.80;;;0.85;;
76631;SDS011;65526;48.578;-4.520;2023-09-12T09:38:13;6.10;;;0.80;;
76631;SDS011;65526;48.578;-4.520;2023-09-12T09:40:42;4.20;;;1.20;;
76631;SDS011;65526;48.578;-4.520;2023-09-12T09:43:10;5.97;;;0.88;;
76631;SDS011;65526;48.578;-4.520;2023-09-12T09:45:44;9.07;;;0.93;;
76631;SDS011;65526;48.578;-4.520;2023-09-12T09:48:18;5.90;;;0.90;;
76631;SDS011;65526;48.578;-4.520;2023-09-12T09:50:45;6.95;;;1.40;;
76631;SDS011;65526;48.578;-4.520;2023-09-12T09:53:12;6.93;;;0.85;;
76631;SDS011;65526;48.578;-4.520;2023-09-12T09:55:39;4.03;;;1.23;;
76631;SDS011;65526;48.578;-4.520;2023-09-12T09:58:06;3.33;;;0.80;;
76631;SDS011;65526;48.578;-4.520;2023-09-12T10:00:33;5.13;;;0.75;;
76631;SDS011;65526;48.578;-4.520;2023-09-12T10:03:04;10.80;;;1.10;;
76631;SDS011;65526;48.578;-4.520;2023-09-12T10:05:32;7.60;;;1.00;;
76631;SDS011;65526;48.578;-4.520;2023-09-12T10:07:59;4.60;;;0.80;;
76631;SDS011;65526;48.578;-4.520;2023-09-12T10:10:29;4.22;;;0.90;;
76631;SDS011;65526;48.578;-4.520;2023-09-12T10:12:56;4.75;;;0.80;;
76631;SDS011;65526;48.578;-4.520;2023-09-12T10:15:26;9.93;;;1.17;;
76631;SDS011;65526;48.578;-4.520;2023-09-12T10:17:57;4.72;;;0.93;;
76631;SDS011;65526;48.578;-4.520;2023-09-12T10:20:30;6.80;;;1.40;;
76631;SDS011;65526;48.578;-4.520;2023-09-12T10:23:15;7.80;;;1.23;;
76631;SDS011;65526;48.578;-4.520;2023-09-12T10:26:02;5.80;;;1.00;;
76631;SDS011;65526;48.578;-4.520;2023-09-12T10:28:30;4.22;;;0.80;;
76631;SDS011;65526;48.578;-4.520;2023-09-12T10:30:57;4.38;;;1.00;;
76631;SDS011;65526;48.578;-4.520;2023-09-12T10:33:27;5.63;;;0.90;;
76631;SDS011;65526;48.578;-4.520;2023-09-12T10:35:57;6.82;;;1.20;;
76631;SDS011;65526;48.578;-4.520;2023-09-12T10:38:26;4.95;;;1.10;;
76631;SDS011;65526;48.578;-4.520;2023-09-12T10:40:55;4.90;;;0.90;;
76631;SDS011;65526;48.578;-4.520;2023-09-12T10:43:22;4.95;;;1.05;;
76631;SDS011;65526;48.578;-4.520;2023-09-12T10:45:51;5.97;;;0.73;;
76631;SDS011;65526;48.578;-4.520;2023-09-12T10:48:18;8.77;;;1.17;;
76631;SDS011;65526;48.578;-4.520;2023-09-12T10:50:44;5.25;;;1.05;;
76631;SDS011;65526;48.578;-4.520;2023-09-12T10:53:12;2.97;;;0.90;;
76631;SDS011;65526;48.578;-4.520;2023-09-12T10:55:40;5.20;;;1.15;;
76631;SDS011;65526;48.578;-4.520;2023-09-12T10:58:08;4.05;;;1.05;;
76631;SDS011;65526;48.578;-4.520;2023-09-12T11:00:36;6.97;;;0.80;;
76631;SDS011;65526;48.578;-4.520;2023-09-12T11:05:53;4.47;;;1.08;;
76631;SDS011;65526;48.578;-4.520;2023-09-12T11:08:20;6.18;;;0.80;;
76631;SDS011;65526;48.578;-4.520;2023-09-12T11:14:03;5.43;;;0.90;;
76631;SDS011;65526;48.578;-4.520;2023-09-12T11:16:31;7.43;;;1.40;;
76631;SDS011;65526;48.578;-4.520;2023-09-12T11:19:14;4.10;;;1.00;;
76631;SDS011;65526;48.578;-4.520;2023-09-12T11:21:45;6.78;;;0.98;;
76631;SDS011;65526;48.578;-4.520;2023-09-12T11:24:14;5.28;;;0.82;;
76631;SDS011;65526;48.578;-4.520;2023-09-12T11:26:57;5.72;;;1.20;;
76631;SDS011;65526;48.578;-4.520;2023-09-12T11:29:29;5.78;;;1.00;;
76631;SDS011;65526;48.578;-4.520;2023-09-12T11:34:35;3.30;;;1.17;;
76631;SDS011;65526;48.578;-4.520;2023-09-12T11:37:04;3.50;;;0.80;;
76631;SDS011;65526;48.578;-4.520;2023-09-12T11:39:31;2.38;;;0.82;;
76631;SDS011;65526;48.578;-4.520;2023-09-12T11:42:00;3.03;;;1.05;;
76631;SDS011;65526;48.578;-4.520;2023-09-12T11:44:28;4.35;;;1.33;;
76631;SDS011;65526;48.578;-4.520;2023-09-12T11:46:57;4.82;;;1.52;;
76631;SDS011;65526;48.578;-4.520;2023-09-12T11:49:41;5.10;;;0.85;;
76631;SDS011;65526;48.578;-4.520;2023-09-12T11:52:11;7.32;;;1.00;;
76631;SDS011;65526;48.578;-4.520;2023-09-12T11:54:39;3.88;;;0.80;;
76631;SDS011;65526;48.578;-4.520;2023-09-12T11:57:09;5.30;;;1.08;;
76631;SDS011;65526;48.578;-4.520;2023-09-12T11:59:38;5.55;;;0.95;;
76631;SDS011;65526;48.578;-4.520;2023-09-12T12:02:11;1.90;;;0.80;;
76631;SDS011;65526;48.578;-4.520;2023-09-12T12:04:37;4.35;;;1.10;;
76631;SDS011;65526;48.578;-4.520;2023-09-12T12:07:05;4.78;;;1.73;;
76631;SDS011;65526;48.578;-4.520;2023-09-12T12:09:32;4.70;;;0.88;;
76631;SDS011;65526;48.578;-4.520;2023-09-12T12:12:17;4.03;;;0.95;;
76631;SDS011;65526;48.578;-4.520;2023-09-12T12:14:43;4.43;;;0.82;;
76631;SDS011;65526;48.578;-4.520;2023-09-12T12:17:11;4.32;;;0.90;;
76631;SDS011;65526;48.578;-4.520;2023-09-12T12:19:38;4.47;;;1.00;;
76631;SDS011;65526;48.578;-4.520;2023-09-12T12:22:05;3.88;;;0.98;;
76631;SDS011;65526;48.578;-4.520;2023-09-12T12:24:36;6.50;;;1.02;;
76631;SDS011;65526;48.578;-4.520;2023-09-12T12:27:04;3.67;;;1.00;;
76631;SDS011;65526;48.578;-4.520;2023-09-12T12:29:31;1.95;;;1.00;;
76631;SDS011;65526;48.578;-4.520;2023-09-12T12:31:59;10.80;;;1.27;;
76631;SDS011;65526;48.578;-4.520;2023-09-12T12:34:27;3.88;;;0.90;;
76631;SDS011;65526;48.578;-4.520;2023-09-12T12:36:55;5.18;;;0.98;;
76631;SDS011;65526;48.578;-4.520;2023-09-12T12:39:21;3.40;;;0.70;;
76631;SDS011;65526;48.578;-4.520;2023-09-12T12:41:48;3.70;;;1.00;;
76631;SDS011;65526;48.578;-4.520;2023-09-12T12:44:17;3.92;;;0.80;;
76631;SDS011;65526;48.578;-4.520;2023-09-12T12:46:53;4.95;;;1.20;;
76631;SDS011;65526;48.578;-4.520;2023-09-12T12:49:20;4.97;;;1.00;;
76631;SDS011;65526;48.578;-4.520;2023-09-12T12:51:48;4.53;;;0.75;;
76631;SDS011;65526;48.578;-4.520;2023-09-12T12:54:15;4.88;;;1.02;;
76631;SDS011;65526;48.578;-4.520;2023-09-12T12:56:42;7.15;;;1.20;;
76631;SDS011;65526;48.578;-4.520;2023-09-12T12:59:10;4.30;;;1.13;;
76631;SDS011;65526;48.578;-4.520;2023-09-12T13:01:36;3.72;;;0.82;;
76631;SDS011;65526;48.578;-4.520;2023-09-12T13:04:05;1.67;;;0.70;;
76631;SDS011;65526;48.578;-4.520;2023-09-12T13:06:32;1.90;;;0.80;;
76631;SDS011;65526;48.578;-4.520;2023-09-12T13:11:31;3.33;;;0.90;;
76631;SDS011;65526;48.578;-4.520;2023-09-12T13:14:01;9.98;;;1.05;;
76631;SDS011;65526;48.578;-4.520;2023-09-12T13:16:28;2.97;;;1.05;;
76631;SDS011;65526;48.578;-4.520;2023-09-12T13:18:55;3.80;;;1.00;;
76631;SDS011;65526;48.578;-4.520;2023-09-12T13:21:22;4.30;;;0.98;;
76631;SDS011;65526;48.578;-4.520;2023-09-12T13:23:48;4.53;;;0.93;;
76631;SDS011;65526;48.578;-4.520;2023-09-12T13:26:14;3.30;;;0.60;;
76631;SDS011;65526;48.578;-4.520;2023-09-12T13:28:41;2.97;;;0.85;;
76631;SDS011;65526;48.578;-4.520;2023-09-12T13:31:07;3.22;;;0.90;;
76631;SDS011;65526;48.578;-4.520;2023-09-12T13:33:34;3.47;;;0.70;;
76631;SDS011;65526;48.578;-4.520;2023-09-12T13:36:00;2.75;;;0.60;;
76631;SDS011;65526;48.578;-4.520;2023-09-12T13:38:26;3.15;;;0.95;;
76631;SDS011;65526;48.578;-4.520;2023-09-12T13:40:53;3.75;;;0.85;;
76631;SDS011;65526;48.578;-4.520;2023-09-12T13:43:19;2.72;;;0.80;;
76631;SDS011;65526;48.578;-4.520;2023-09-12T13:45:45;2.70;;;0.82;;
76631;SDS011;65526;48.578;-4.520;2023-09-12T13:48:12;1.77;;;0.57;;
76631;SDS011;65526;48.578;-4.520;2023-09-12T13:50:39;4.07;;;1.55;;
76631;SDS011;65526;48.578;-4.520;2023-09-12T13:53:05;3.25;;;0.70;;
76631;SDS011;65526;48.578;-4.520;2023-09-12T13:55:33;2.42;;;0.77;;
76631;SDS011;65526;48.578;-4.520;2023-09-12T13:58:02;2.95;;;0.88;;
76631;SDS011;65526;48.578;-4.520;2023-09-12T14:00:30;2.22;;;0.80;;
76631;SDS011;65526;48.578;-4.520;2023-09-12T14:02:57;4.05;;;0.57;;
76631;SDS011;65526;48.578;-4.520;2023-09-12T14:05:23;5.15;;;0.70;;
76631;SDS011;65526;48.578;-4.520;2023-09-12T14:07:50;2.10;;;0.70;;
76631;SDS011;65526;48.578;-4.520;2023-09-12T14:10:17;4.88;;;0.70;;
76631;SDS011;65526;48.578;-4.520;2023-09-12T14:12:44;3.65;;;0.63;;
76631;SDS011;65526;48.578;-4.520;2023-09-12T14:15:11;3.97;;;0.80;;
76631;SDS011;65526;48.578;-4.520;2023-09-12T14:17:40;6.35;;;1.10;;
76631;SDS011;65526;48.578;-4.520;2023-09-12T14:20:07;2.85;;;0.90;;
76631;SDS011;65526;48.578;-4.520;2023-09-12T14:22:36;1.00;;;0.52;;
76631;SDS011;65526;48.578;-4.520;2023-09-12T14:25:02;4.30;;;0.77;;
76631;SDS011;65526;48.578;-4.520;2023-09-12T14:27:29;4.18;;;0.65;;
76631;SDS011;65526;48.578;-4.520;2023-09-12T14:29:55;5.65;;;1.05;;
76631;SDS011;65526;48.578;-4.520;2023-09-12T14:32:22;3.90;;;0.70;;
76631;SDS011;65526;48.578;-4.520;2023-09-12T14:34:48;2.60;;;0.82;;
76631;SDS011;65526;48.578;-4.520;2023-09-12T14:37:15;3.25;;;0.93;;
76631;SDS011;65526;48.578;-4.520;2023-09-12T14:39:41;2.38;;;0.60;;
76631;SDS011;65526;48.578;-4.520;2023-09-12T14:42:08;2.63;;;0.60;;
76631;SDS011;65526;48.578;-4.520;2023-09-12T14:44:35;2.05;;;0.60;;
76631;SDS011;65526;48.578;-4.520;2023-09-12T14:47:01;2.28;;;0.70;;